Port Lavaca, Texas
Current Conditions -  °F | °C
As of 1:55 AM on Wednesday 22 Oct 2014 (Local Time) from KPKV Reporting Station
Clear Clear  
Wind Chill: 67°   Ceiling: Unl
Heat Index: 67°   Visibility: 10mi
Dew Point: 61°   Wind: 8mph
Humidity: 83%   Direction: 70°ENE
Pressure: 30.01"   Gusts: NA
Location:  28.62°N, 96.62°W
Report Text: KPKV 220655Z AUTO 07007KT 10SM CLR 19/16 A3001 RMK AO2 T01920163
Loading
Personal Weather Stations






























Interactive Weather Map
Tropical Storm Tracking
New forecast layout! Learn more

10-Day Weather Forecast

Advertisements
Track Severe Weather on mobile